Time;durP1;ratioP1;P1;durP2;ratioP2;P2;SDS_P1;SDS_P2;PMS_P1;PMS_P2;Temp;Humidity;BMP_temperature;BMP_pressure;BME280_temperature;BME280_humidity;BME280_pressure;Samples;Min_cycle;Max_cycle;Signal;HPM_P1;HPM_P2
2023/04/15 00:00:06;;;;;;;8.30;4.47;;;;;;;-139.84;100.00;61778.28;5039286;28;20028;-72
2023/04/15 00:02:32;;;;;;;9.98;4.60;;;;;;;-139.84;100.00;61778.28;5046472;28;20095;-72
2023/04/15 00:04:57;;;;;;;12.90;4.30;;;;;;;-139.84;100.00;61778.28;5046013;28;20021;-74
2023/04/15 00:07:22;;;;;;;12.97;4.90;;;;;;;-139.84;100.00;61778.28;5046171;28;20028;-72
2023/04/15 00:09:48;;;;;;;16.67;5.10;;;;;;;-139.84;100.00;61778.28;5035214;28;20164;-72
2023/04/15 00:12:13;;;;;;;11.27;4.15;;;;;;;-139.84;100.00;61778.28;5049432;28;20152;-73
2023/04/15 00:14:39;;;;;;;13.70;4.60;;;;;;;-139.84;100.00;61778.28;5045506;28;20071;-73
2023/04/15 00:17:04;;;;;;;19.00;5.32;;;;;;;-139.84;100.00;61778.28;5048027;28;20035;-74
2023/04/15 00:19:31;;;;;;;9.83;4.37;;;;;;;-139.84;100.00;61778.28;5037638;28;20037;-72
2023/04/15 00:21:56;;;;;;;10.93;4.53;;;;;;;-139.84;100.00;61778.28;5048036;28;20036;-72
2023/04/15 00:24:22;;;;;;;11.45;4.60;;;;;;;-139.84;100.00;61778.28;5045107;28;20460;-72
2023/04/15 00:26:48;;;;;;;11.10;4.50;;;;;;;-139.84;100.00;61778.28;5049276;28;20025;-72
2023/04/15 00:29:14;;;;;;;12.07;4.85;;;;;;;-139.84;100.00;61778.28;5045294;28;20025;-74
2023/04/15 00:31:39;;;;;;;15.88;5.53;;;;;;;-139.84;100.00;61778.28;5046077;28;20029;-73
2023/04/15 00:34:05;;;;;;;15.90;6.30;;;;;;;-139.84;100.00;61778.28;5027465;28;20029;-72
2023/04/15 00:36:32;;;;;;;16.63;5.57;;;;;;;-139.84;100.00;61778.28;5047912;28;20032;-72
2023/04/15 00:38:58;;;;;;;14.85;5.18;;;;;;;-139.84;100.00;61778.28;5029088;28;20064;-72
2023/04/15 00:41:24;;;;;;;14.65;6.10;;;;;;;-139.84;100.00;61778.28;5044063;28;20060;-72
2023/04/15 00:43:49;;;;;;;14.90;5.50;;;;;;;-139.84;100.00;61778.28;5046379;28;20431;-72
2023/04/15 00:46:16;;;;;;;11.67;5.20;;;;;;;-139.84;100.00;61778.28;5043288;28;20112;-72
2023/04/15 00:48:42;;;;;;;13.93;5.25;;;;;;;-139.84;100.00;61778.28;5045631;28;20116;-72
2023/04/15 00:51:08;;;;;;;16.27;4.95;;;;;;;-139.84;100.00;61778.28;5025855;28;20029;-72
2023/04/15 00:53:34;;;;;;;11.93;4.40;;;;;;;-139.84;100.00;61778.28;5026454;28;20047;-72
2023/04/15 00:55:59;;;;;;;12.55;5.50;;;;;;;-139.84;100.00;61778.28;5044710;28;20480;-72
2023/04/15 00:58:26;;;;;;;15.93;5.78;;;;;;;-139.84;100.00;61778.28;5043911;28;20035;-73
2023/04/15 01:00:53;;;;;;;11.90;5.22;;;;;;;-139.84;100.00;61778.28;5043586;28;20021;-71
2023/04/15 01:03:19;;;;;;;;;;;;;;;-139.84;100.00;61778.28;5045978;28;20036;-72
2023/04/15 01:05:45;;;;;;;14.98;5.45;;;;;;;-139.84;100.00;61778.28;5044304;28;20295;-72
2023/04/15 01:08:11;;;;;;;11.30;5.15;;;;;;;-139.84;100.00;61778.28;5031271;28;20484;-73
2023/04/15 01:10:36;;;;;;;16.95;6.13;;;;;;;-139.84;100.00;61778.28;5048149;28;20041;-72
2023/04/15 01:13:02;;;;;;;13.48;5.30;;;;;;;-139.84;100.00;61778.28;5047402;28;20171;-72
2023/04/15 01:15:28;;;;;;;13.23;6.03;;;;;;;-139.84;100.00;61778.28;5044106;28;20469;-72
2023/04/15 01:17:53;;;;;;;16.63;5.47;;;;;;;-139.84;100.00;61778.28;5042501;28;20035;-73
2023/04/15 01:20:19;;;;;;;13.27;6.15;;;;;;;-139.84;100.00;61778.28;5044234;28;20370;-74
2023/04/15 01:22:45;;;;;;;11.35;5.72;;;;;;;-139.84;100.00;61778.28;5045026;28;20033;-73
2023/04/15 01:25:16;;;;;;;15.40;5.35;;;;;;;-139.84;100.00;61778.28;5046569;28;20082;-72
2023/04/15 01:27:42;;;;;;;10.90;5.68;;;;;;;-139.84;100.00;61778.28;5035238;28;20029;-72
2023/04/15 01:30:09;;;;;;;14.17;6.43;;;;;;;-139.84;100.00;61778.28;5042900;28;20025;-72
2023/04/15 01:32:35;;;;;;;17.02;6.13;;;;;;;-139.84;100.00;61778.28;5037728;28;20108;-72
2023/04/15 01:35:01;;;;;;;13.68;5.97;;;;;;;-139.84;100.00;61778.28;5043385;28;20064;-73
2023/04/15 01:37:26;;;;;;;17.70;6.07;;;;;;;-139.84;100.00;61778.28;5031323;28;20027;-73
2023/04/15 01:39:52;;;;;;;14.68;5.80;;;;;;;-139.84;100.00;61778.28;5048568;28;20500;-72
2023/04/15 01:42:17;;;;;;;12.75;6.30;;;;;;;-139.84;100.00;61778.28;5044365;28;20033;-72
2023/04/15 01:44:42;;;;;;;10.98;6.13;;;;;;;-139.84;100.00;61778.28;5045094;28;20033;-72
2023/04/15 01:47:08;;;;;;;12.00;7.07;;;;;;;-139.84;100.00;61778.28;5046765;28;20554;-71
2023/04/15 01:49:33;;;;;;;12.05;6.15;;;;;;;-139.84;100.00;61778.28;5033908;28;20032;-72
2023/04/15 01:51:59;;;;;;;13.23;5.70;;;;;;;-139.84;100.00;61778.28;5046508;28;20086;-73
2023/04/15 01:54:26;;;;;;;14.25;6.45;;;;;;;-139.84;100.00;61778.28;5044921;28;20365;-72
2023/04/15 01:56:52;;;;;;;14.48;6.60;;;;;;;-139.84;100.00;61778.28;5041404;28;20025;-73
2023/04/15 01:59:17;;;;;;;15.40;6.38;;;;;;;-139.84;100.00;61778.28;5042669;28;20051;-72
2023/04/15 02:01:44;;;;;;;12.60;5.65;;;;;;;-139.84;100.00;61778.28;5049755;28;20041;-72
2023/04/15 02:04:15;;;;;;;15.20;6.25;;;;;;;-139.84;100.00;61778.28;5044580;28;20065;-70
2023/04/15 02:06:42;;;;;;;18.42;6.57;;;;;;;-139.84;100.00;61778.28;5043413;28;20396;-69
2023/04/15 02:09:08;;;;;;;;;;;;;;;-139.84;100.00;61778.28;5042571;28;20035;-69
2023/04/15 02:11:34;;;;;;;16.38;7.18;;;;;;;-139.84;100.00;61778.28;5046511;28;19920;-70
2023/04/15 02:14:00;;;;;;;9.53;6.40;;;;;;;-139.84;100.00;61778.28;5026441;28;20033;-72
2023/04/15 02:16:26;;;;;;;11.55;6.20;;;;;;;-139.84;100.00;61778.28;5041719;28;20290;-73
2023/04/15 02:18:51;;;;;;;13.70;6.05;;;;;;;-139.84;100.00;61778.28;5045697;28;20028;-73
2023/04/15 02:21:17;;;;;;;13.10;6.03;;;;;;;-139.84;100.00;61778.28;5042743;28;20060;-73
2023/04/15 02:23:43;;;;;;;17.33;6.95;;;;;;;-139.84;100.00;61778.28;5043999;28;20105;-73
2023/04/15 02:26:08;;;;;;;10.98;6.35;;;;;;;-139.84;100.00;61778.28;5043088;28;20099;-72
2023/04/15 02:28:34;;;;;;;10.52;6.35;;;;;;;-139.84;100.00;61778.28;5030057;28;20062;-73
2023/04/15 02:31:01;;;;;;;9.82;6.13;;;;;;;-139.84;100.00;61778.28;5027766;28;20121;-74
2023/04/15 02:33:26;;;;;;;14.57;7.32;;;;;;;-139.84;100.00;61778.28;5044420;28;20204;-73
2023/04/15 02:35:52;;;;;;;14.27;7.13;;;;;;;-139.84;100.00;61778.28;5043584;28;20563;-73
2023/04/15 02:38:17;;;;;;;20.30;7.20;;;;;;;-139.84;100.00;61778.28;5042678;28;20396;-73
2023/04/15 02:40:43;;;;;;;14.85;7.30;;;;;;;-139.84;100.00;61778.28;5042013;28;20040;-73
2023/04/15 02:43:08;;;;;;;12.45;7.22;;;;;;;-139.84;100.00;61778.28;5042437;28;20037;-72
2023/04/15 02:45:34;;;;;;;13.80;7.25;;;;;;;-139.84;100.00;61778.28;5027047;28;20478;-73
2023/04/15 02:48:04;;;;;;;14.88;7.10;;;;;;;-139.84;100.00;61778.28;5043994;28;20108;-72
2023/04/15 02:50:30;;;;;;;12.70;6.93;;;;;;;-139.84;100.00;61778.28;5044679;28;20052;-73
2023/04/15 02:52:55;;;;;;;12.85;6.70;;;;;;;-139.84;100.00;61778.28;5046013;28;20103;-72
2023/04/15 02:55:21;;;;;;;15.48;6.90;;;;;;;-139.84;100.00;61778.28;5028427;28;20021;-73
2023/04/15 02:57:46;;;;;;;14.25;6.55;;;;;;;-139.84;100.00;61778.28;5044230;28;20039;-73
2023/04/15 03:00:13;;;;;;;14.88;7.15;;;;;;;-139.84;100.00;61778.28;5042154;28;20021;-72
2023/04/15 03:02:38;;;;;;;13.18;7.28;;;;;;;-139.84;100.00;61778.28;5033378;28;20036;-72
2023/04/15 03:05:05;;;;;;;14.73;6.63;;;;;;;-139.84;100.00;61778.28;5043298;28;20029;-73
2023/04/15 03:07:30;;;;;;;19.58;8.00;;;;;;;-139.84;100.00;61778.28;5043600;28;20147;-72
2023/04/15 03:09:56;;;;;;;22.70;7.60;;;;;;;-139.84;100.00;61778.28;5041273;28;20045;-73
2023/04/15 03:12:22;;;;;;;16.50;7.80;;;;;;;-139.84;100.00;61778.28;5045986;28;20024;-72
2023/04/15 03:14:47;;;;;;;15.10;7.07;;;;;;;-139.84;100.00;61778.28;5043396;28;20025;-72
2023/04/15 03:17:13;;;;;;;11.82;6.82;;;;;;;-139.84;100.00;61778.28;5043734;28;20029;-72
2023/04/15 03:19:38;;;;;;;13.65;6.75;;;;;;;-139.84;100.00;61778.28;5041972;28;20480;-72
2023/04/15 03:22:03;;;;;;;17.17;7.80;;;;;;;-139.84;100.00;61778.28;5046073;28;20492;-72
2023/04/15 03:24:29;;;;;;;9.80;6.60;;;;;;;-139.84;100.00;61778.28;5041649;28;20029;-72
2023/04/15 03:26:56;;;;;;;11.70;6.43;;;;;;;-139.84;100.00;61778.28;5042279;28;20029;-72
2023/04/15 03:29:22;;;;;;;17.20;7.85;;;;;;;-139.84;100.00;61778.28;5027211;28;20056;-72
2023/04/15 03:31:47;;;;;;;11.43;7.07;;;;;;;-139.84;100.00;61778.28;5044883;28;20496;-73
2023/04/15 03:34:13;;;;;;;11.80;6.95;;;;;;;-139.84;100.00;61778.28;5042475;28;20036;-73
2023/04/15 03:36:38;;;;;;;12.25;7.18;;;;;;;-139.84;100.00;61778.28;5040618;28;20025;-73
2023/04/15 03:39:04;;;;;;;13.30;7.57;;;;;;;-139.84;100.00;61778.28;5040917;28;20320;-73
2023/04/15 03:41:29;;;;;;;12.60;7.55;;;;;;;-139.84;100.00;61778.28;5044761;28;20025;-73
2023/04/15 03:43:55;;;;;;;11.80;7.13;;;;;;;-139.84;100.00;61778.28;5041518;28;20424;-73
2023/04/15 03:46:20;;;;;;;13.73;7.88;;;;;;;-139.84;100.00;61778.28;5042443;28;20108;-72
2023/04/15 03:48:46;;;;;;;10.85;7.35;;;;;;;-139.84;100.00;61778.28;5045022;28;20033;-72
2023/04/15 03:51:12;;;;;;;10.75;6.97;;;;;;;-139.84;100.00;61778.28;5043566;28;20548;-72
2023/04/15 03:53:37;;;;;;;12.23;7.22;;;;;;;-139.84;100.00;61778.28;5042522;28;20040;-73
2023/04/15 03:56:02;;;;;;;14.27;7.65;;;;;;;-139.84;100.00;61778.28;5042795;28;20103;-73
2023/04/15 03:58:28;;;;;;;16.20;7.47;;;;;;;-139.84;100.00;61778.28;5043224;28;20115;-72
2023/04/15 04:00:53;;;;;;;15.55;7.88;;;;;;;-139.84;100.00;61778.28;5044102;28;20105;-73
2023/04/15 04:03:19;;;;;;;13.63;6.93;;;;;;;-139.84;100.00;61778.28;5027185;28;20068;-73
2023/04/15 04:05:45;;;;;;;13.38;7.28;;;;;;;-139.84;100.00;61778.28;5031741;28;20028;-73
2023/04/15 04:08:12;;;;;;;14.02;7.18;;;;;;;-139.84;100.00;61778.28;5043676;28;20176;-73
2023/04/15 04:10:38;;;;;;;;;;;;;;;-139.84;100.00;61778.28;5043269;28;20048;-73
2023/04/15 04:13:03;;;;;;;13.35;7.68;;;;;;;-139.84;100.00;61778.28;5034042;28;19913;-73
2023/04/15 04:15:29;;;;;;;19.42;7.40;;;;;;;-139.84;100.00;61778.28;5026008;28;20021;-72
2023/04/15 04:17:54;;;;;;;11.07;6.80;;;;;;;-139.84;100.00;61778.28;5030186;28;20515;-73
2023/04/15 04:20:20;;;;;;;13.10;6.65;;;;;;;-139.84;100.00;61778.28;5042071;28;20409;-73
2023/04/15 04:22:46;;;;;;;16.65;6.70;;;;;;;-139.84;100.00;61778.28;5042401;28;20033;-74
2023/04/15 04:25:11;;;;;;;11.25;6.70;;;;;;;-139.84;100.00;61778.28;5032185;28;20091;-72
2023/04/15 04:27:37;;;;;;;14.50;7.38;;;;;;;-139.84;100.00;61778.28;5041037;28;20021;-73
2023/04/15 04:30:03;;;;;;;10.50;6.90;;;;;;;-139.84;100.00;61778.28;5042630;28;20036;-72
2023/04/15 04:32:28;;;;;;;12.25;7.60;;;;;;;-139.84;100.00;61778.28;5043042;28;20029;-72
2023/04/15 04:34:54;;;;;;;14.43;7.43;;;;;;;-139.84;100.00;61778.28;5042136;28;20170;-73
2023/04/15 04:37:19;;;;;;;14.43;7.32;;;;;;;-139.84;100.00;61778.28;5043117;28;20025;-73
2023/04/15 04:39:45;;;;;;;16.63;7.10;;;;;;;-139.84;100.00;61778.28;5040319;28;20468;-73
2023/04/15 04:42:10;;;;;;;9.65;7.57;;;;;;;-139.84;100.00;61778.28;5047547;28;20112;-74
2023/04/15 04:44:36;;;;;;;12.95;7.03;;;;;;;-139.84;100.00;61778.28;5043692;28;20020;-73
2023/04/15 04:47:01;;;;;;;15.50;7.05;;;;;;;-139.84;100.00;61778.28;5047964;28;20024;-74
2023/04/15 04:49:27;;;;;;;16.38;7.85;;;;;;;-139.84;100.00;61778.28;5029034;28;20033;-73
2023/04/15 04:51:52;;;;;;;9.55;6.97;;;;;;;-139.84;100.00;61778.28;5045445;28;20367;-73
2023/04/15 04:54:18;;;;;;;15.15;7.80;;;;;;;-139.84;100.00;61778.28;5034270;28;20064;-74
2023/04/15 04:56:43;;;;;;;10.75;7.10;;;;;;;-139.84;100.00;61778.28;5031035;28;20039;-73
2023/04/15 04:59:09;;;;;;;13.88;7.57;;;;;;;-139.84;100.00;61778.28;5033069;28;20028;-72
2023/04/15 05:01:34;;;;;;;9.93;7.40;;;;;;;-139.84;100.00;61778.28;5046395;28;20036;-72
2023/04/15 05:04:00;;;;;;;12.55;7.93;;;;;;;-139.84;100.00;61778.28;5045451;28;20036;-73
2023/04/15 05:06:26;;;;;;;13.30;8.07;;;;;;;-139.84;100.00;61778.28;5030684;28;20332;-72
2023/04/15 05:08:51;;;;;;;11.77;6.85;;;;;;;-139.84;100.00;61778.28;5045933;28;20067;-73
2023/04/15 05:11:17;;;;;;;13.75;8.20;;;;;;;-139.84;100.00;61778.28;5028422;28;20495;-72
2023/04/15 05:13:42;;;;;;;16.58;8.05;;;;;;;-139.84;100.00;61778.28;5042012;28;20020;-72
2023/04/15 05:16:08;;;;;;;14.85;7.72;;;;;;;-139.84;100.00;61778.28;5046260;28;20115;-72
2023/04/15 05:18:33;;;;;;;12.73;7.63;;;;;;;-139.84;100.00;61778.28;5043850;28;20037;-73
2023/04/15 05:21:00;;;;;;;11.23;7.68;;;;;;;-139.84;100.00;61778.28;5047176;28;20028;-73
2023/04/15 05:23:25;;;;;;;13.10;7.50;;;;;;;-139.84;100.00;61778.28;5044055;28;20033;-72
2023/04/15 05:25:51;;;;;;;11.60;7.88;;;;;;;-139.84;100.00;61778.28;5049295;28;20029;-72
2023/04/15 05:28:16;;;;;;;10.98;7.35;;;;;;;-139.84;100.00;61778.28;5042305;28;20033;-72
2023/04/15 05:30:42;;;;;;;13.07;7.55;;;;;;;-139.84;100.00;61778.28;5030058;28;20021;-72
2023/04/15 05:33:07;;;;;;;13.15;8.30;;;;;;;-139.84;100.00;61778.28;5045773;28;20033;-73
2023/04/15 05:35:33;;;;;;;15.18;8.98;;;;;;;-139.84;100.00;61778.28;5045419;28;20240;-73
2023/04/15 05:37:58;;;;;;;15.18;8.02;;;;;;;-139.84;100.00;61778.28;5044330;28;20062;-72
2023/04/15 05:40:24;;;;;;;11.02;7.32;;;;;;;-139.84;100.00;61778.28;5043926;28;20056;-72
2023/04/15 05:42:50;;;;;;;9.73;8.27;;;;;;;-139.84;100.00;61778.28;5034242;28;20032;-73
2023/04/15 05:45:15;;;;;;;12.23;7.75;;;;;;;-139.84;100.00;61778.28;5044534;28;20036;-72
2023/04/15 05:47:40;;;;;;;11.43;8.18;;;;;;;-139.84;100.00;61778.28;5044137;28;20052;-73
2023/04/15 05:50:07;;;;;;;11.02;8.15;;;;;;;-139.84;100.00;61778.28;5044293;28;20040;-73
2023/04/15 05:52:32;;;;;;;11.82;7.65;;;;;;;-139.84;100.00;61778.28;5045021;28;20029;-73
2023/04/15 05:54:57;;;;;;;12.45;8.05;;;;;;;-139.84;100.00;61778.28;5044593;28;20087;-73
2023/04/15 05:57:23;;;;;;;11.05;7.18;;;;;;;-139.84;100.00;61778.28;5042999;28;20443;-72
2023/04/15 05:59:51;;;;;;;17.23;7.85;;;;;;;-139.84;100.00;61778.28;5041652;28;20025;-73
2023/04/15 06:02:16;;;;;;;11.25;7.85;;;;;;;-139.84;100.00;61778.28;5046486;28;20469;-73
2023/04/15 06:04:41;;;;;;;15.20;8.02;;;;;;;-139.84;100.00;61778.28;5043719;28;20028;-73
2023/04/15 06:07:08;;;;;;;14.60;8.55;;;;;;;-139.84;100.00;61778.28;5047113;28;20044;-74
2023/04/15 06:09:35;;;;;;;14.43;7.65;;;;;;;-139.84;100.00;61778.28;5043360;28;20398;-72
2023/04/15 06:12:01;;;;;;;11.63;7.80;;;;;;;-139.84;100.00;61778.28;5043105;28;20037;-72
2023/04/15 06:14:26;;;;;;;11.60;7.45;;;;;;;-139.84;100.00;61778.28;5043646;28;20441;-72
2023/04/15 06:16:52;;;;;;;15.15;8.73;;;;;;;-139.84;100.00;61778.28;5044957;28;20064;-73
2023/04/15 06:19:18;;;;;;;10.65;8.60;;;;;;;-139.84;100.00;61778.28;5042205;28;20020;-73
2023/04/15 06:21:44;;;;;;;14.83;8.73;;;;;;;-139.84;100.00;61778.28;5046912;28;20029;-72
2023/04/15 06:24:10;;;;;;;11.40;7.40;;;;;;;-139.84;100.00;61778.28;5043222;28;20623;-72
2023/04/15 06:26:35;;;;;;;11.43;8.23;;;;;;;-139.84;100.00;61778.28;5044632;28;20063;-73
2023/04/15 06:29:00;;;;;;;17.35;8.27;;;;;;;-139.84;100.00;61778.28;5046471;28;20033;-71
2023/04/15 06:31:26;;;;;;;13.25;8.25;;;;;;;-139.84;100.00;61778.28;5044672;28;20530;-73
2023/04/15 06:33:51;;;;;;;12.45;7.40;;;;;;;-139.84;100.00;61778.28;5045667;28;20060;-73
2023/04/15 06:36:17;;;;;;;21.95;8.82;;;;;;;-139.84;100.00;61778.28;5032862;28;20057;-74
2023/04/15 06:38:42;;;;;;;11.93;8.05;;;;;;;-139.84;100.00;61778.28;5032222;28;20032;-74
2023/04/15 06:41:08;;;;;;;15.10;8.25;;;;;;;-139.84;100.00;61778.28;5045021;28;20285;-73
2023/04/15 06:43:33;;;;;;;13.00;8.38;;;;;;;-139.84;100.00;61778.28;5039451;28;20049;-73
2023/04/15 06:45:59;;;;;;;11.93;8.07;;;;;;;-139.84;100.00;61778.28;5036993;28;20477;-73
2023/04/15 06:48:24;;;;;;;13.15;9.02;;;;;;;-139.84;100.00;61778.28;5040872;28;20490;-73
2023/04/15 06:50:50;;;;;;;14.20;9.00;;;;;;;-139.84;100.00;61778.28;5046564;28;20029;-74
2023/04/15 06:53:15;;;;;;;11.70;8.60;;;;;;;-139.84;100.00;61778.28;5042853;28;20126;-73
2023/04/15 06:55:41;;;;;;;13.25;8.43;;;;;;;-139.84;100.00;61778.28;5042599;28;20090;-72
2023/04/15 06:58:06;;;;;;;11.70;8.07;;;;;;;-139.84;100.00;61778.28;5046856;28;20090;-73
2023/04/15 07:00:32;;;;;;;12.38;8.35;;;;;;;-139.84;100.00;61778.28;5044211;28;20449;-73
2023/04/15 07:03:02;;;;;;;11.90;8.95;;;;;;;-139.84;100.00;61778.28;5044640;28;20029;-73
2023/04/15 07:05:28;;;;;;;12.25;8.00;;;;;;;-139.84;100.00;61778.28;5024154;28;20036;-73
2023/04/15 07:07:54;;;;;;;16.57;9.13;;;;;;;-139.84;100.00;61778.28;5026439;28;20423;-74
2023/04/15 07:10:20;;;;;;;9.50;7.63;;;;;;;-139.84;100.00;61778.28;5045293;28;20469;-75
2023/04/15 07:12:45;;;;;;;12.27;8.93;;;;;;;-139.84;100.00;61778.28;5044720;28;20112;-75
2023/04/15 07:15:11;;;;;;;12.17;8.27;;;;;;;-139.84;100.00;61778.28;5029337;28;20115;-74
2023/04/15 07:17:37;;;;;;;9.23;7.55;;;;;;;-139.84;100.00;61778.28;5041624;28;20099;-74
2023/04/15 07:20:03;;;;;;;9.57;7.33;;;;;;;-139.84;100.00;61778.28;5043084;28;20463;-76
2023/04/15 07:22:29;;;;;;;12.55;8.00;;;;;;;-139.84;100.00;61778.28;5044131;28;20401;-75
2023/04/15 07:24:54;;;;;;;12.67;7.30;;;;;;;-139.84;100.00;61778.28;5041717;28;20032;-74
2023/04/15 07:27:20;;;;;;;9.87;6.83;;;;;;;-139.84;100.00;61778.28;5042400;28;20036;-73
2023/04/15 07:29:45;;;;;;;11.87;8.37;;;;;;;-139.84;100.00;61778.28;5027396;28;20078;-75
2023/04/15 07:32:11;;;;;;;11.13;7.40;;;;;;;-139.84;100.00;61778.28;5044907;28;20486;-75
2023/04/15 07:34:36;;;;;;;8.93;6.97;;;;;;;-139.84;100.00;61778.28;5039902;28;20485;-75
2023/04/15 07:37:02;;;;;;;11.27;7.67;;;;;;;-139.84;100.00;61778.28;5039262;28;20021;-74
2023/04/15 07:39:28;;;;;;;15.03;8.67;;;;;;;-139.84;100.00;61778.28;5037655;28;20029;-74
2023/04/15 07:41:55;;;;;;;11.05;8.27;;;;;;;-139.84;100.00;61778.28;5024814;28;20029;-74
2023/04/15 07:44:20;;;;;;;12.95;7.05;;;;;;;-139.84;100.00;61778.28;5042784;28;20032;-74
2023/04/15 07:46:46;;;;;;;12.50;8.07;;;;;;;-139.84;100.00;61778.28;5045586;28;20021;-75
2023/04/15 07:49:12;;;;;;;10.93;7.57;;;;;;;-139.84;100.00;61778.28;5043395;28;20101;-75
2023/04/15 07:51:37;;;;;;;11.10;7.87;;;;;;;-139.84;100.00;61778.28;5046387;28;20108;-74
2023/04/15 07:54:03;;;;;;;9.77;7.13;;;;;;;-139.84;100.00;61778.28;5038996;28;20033;-75
2023/04/15 07:56:28;;;;;;;12.53;8.23;;;;;;;-139.84;100.00;61778.28;5043182;28;20030;-74
2023/04/15 07:58:54;;;;;;;11.93;7.87;;;;;;;-139.84;100.00;61778.28;5026172;28;20029;-74
2023/04/15 08:01:19;;;;;;;10.07;7.43;;;;;;;-139.84;100.00;61778.28;5043381;28;20025;-74
2023/04/15 08:03:45;;;;;;;14.40;7.83;;;;;;;-139.84;100.00;61778.28;5041214;28;20396;-74
2023/04/15 08:06:11;;;;;;;11.50;7.75;;;;;;;-139.84;100.00;61778.28;5037923;28;20031;-75
2023/04/15 08:08:36;;;;;;;10.87;7.43;;;;;;;-139.84;100.00;61778.28;5045754;28;20033;-75
2023/04/15 08:11:02;;;;;;;10.93;8.60;;;;;;;-139.84;100.00;61778.28;5040467;28;20051;-75
2023/04/15 08:13:27;;;;;;;10.47;8.33;;;;;;;-139.84;100.00;61778.28;5039811;28;20021;-74
2023/04/15 08:16:12;;;;;;;11.17;7.50;;;;;;;-139.84;100.00;61778.28;5044708;28;20036;-73
2023/04/15 08:18:37;;;;;;;11.90;7.47;;;;;;;-139.84;100.00;61778.28;5044918;28;20032;-73
2023/04/15 08:21:05;;;;;;;12.23;7.50;;;;;;;-139.84;100.00;61778.28;5047046;28;20037;-74
2023/04/15 08:23:32;;;;;;;10.88;7.20;;;;;;;-139.84;100.00;61778.28;5042667;28;20037;-74
2023/04/15 08:25:57;;;;;;;;;;;;;;;-139.84;100.00;61778.28;5047514;28;20483;-74
2023/04/15 08:28:23;;;;;;;12.45;6.55;;;;;;;-139.84;100.00;61778.28;5027085;28;19913;-72
2023/04/15 08:30:48;;;;;;;8.70;6.17;;;;;;;-139.84;100.00;61778.28;5046317;28;20078;-72
2023/04/15 08:33:14;;;;;;;9.23;6.43;;;;;;;-139.84;100.00;61778.28;5047883;28;20029;-73
2023/04/15 08:35:39;;;;;;;8.77;6.33;;;;;;;-139.84;100.00;61778.28;5043711;28;20039;-73
2023/04/15 08:38:04;;;;;;;8.47;6.57;;;;;;;-139.84;100.00;61778.28;5044971;28;20029;-73
2023/04/15 08:40:41;;;;;;;7.60;6.53;;;;;;;-139.84;100.00;61778.28;5045401;28;20036;-73
2023/04/15 08:43:09;;;;;;;9.02;7.13;;;;;;;-139.84;100.00;61778.28;5030566;28;20128;-74
2023/04/15 08:45:40;;;;;;;11.93;7.18;;;;;;;-139.84;100.00;61778.28;5049211;28;20033;-75
2023/04/15 08:48:08;;;;;;;13.38;9.07;;;;;;;-139.84;100.00;61778.28;5029326;28;20024;-72
2023/04/15 08:50:34;;;;;;;11.48;7.80;;;;;;;-139.84;100.00;61778.28;5044791;28;20043;-75
2023/04/15 08:53:00;;;;;;;11.47;8.23;;;;;;;-139.84;100.00;61778.28;5045846;28;20032;-74
2023/04/15 08:55:32;;;;;;;10.43;7.53;;;;;;;-139.84;100.00;61778.28;5043778;28;20427;-72
2023/04/15 08:57:58;;;;;;;16.88;8.57;;;;;;;-139.84;100.00;61778.28;5047225;28;20029;-72
2023/04/15 09:00:25;;;;;;;10.97;7.87;;;;;;;-139.84;100.00;61778.28;5044508;28;20043;-74
2023/04/15 09:02:51;;;;;;;13.32;7.75;;;;;;;-139.84;100.00;61778.28;5044717;28;20033;-73
2023/04/15 09:05:16;;;;;;;14.37;9.10;;;;;;;-139.84;100.00;61778.28;5049912;28;20380;-73
2023/04/15 09:07:42;;;;;;;14.20;8.77;;;;;;;-139.84;100.00;61778.28;5025653;28;20028;-73
2023/04/15 09:10:08;;;;;;;11.40;8.80;;;;;;;-139.84;100.00;61778.28;5044954;28;20048;-72
2023/04/15 09:12:35;;;;;;;13.80;8.25;;;;;;;-139.84;100.00;61778.28;5043510;28;20533;-74
2023/04/15 09:15:01;;;;;;;;;;;;;;;-139.84;100.00;61778.28;5041772;28;20036;-73
2023/04/15 09:17:27;;;;;;;10.48;7.57;;;;;;;-139.84;100.00;61778.28;5043494;28;19947;-73
2023/04/15 09:20:12;;;;;;;11.97;7.07;;;;;;;-139.84;100.00;61778.28;5043699;28;20500;-73
2023/04/15 09:22:38;;;;;;;8.27;6.72;;;;;;;-139.84;100.00;61778.28;5030260;28;20053;-73
2023/04/15 09:25:25;;;;;;;9.40;6.40;;;;;;;-139.84;100.00;61778.28;5028226;28;20514;-73
2023/04/15 09:27:52;;;;;;;12.98;6.72;;;;;;;-139.84;100.00;61778.28;5044352;28;20033;-73
2023/04/15 09:30:18;;;;;;;8.98;6.30;;;;;;;-139.84;100.00;61778.28;5040550;28;20112;-73
2023/04/15 09:32:55;;;;;;;9.97;5.47;;;;;;;-139.84;100.00;61778.28;5045938;28;20528;-73
2023/04/15 09:35:21;;;;;;;7.63;5.43;;;;;;;-139.84;100.00;61778.28;5042727;28;20480;-72
2023/04/15 09:37:48;;;;;;;8.77;5.63;;;;;;;-139.84;100.00;61778.28;5046226;28;20048;-71
2023/04/15 09:40:14;;;;;;;10.35;5.93;;;;;;;-139.84;100.00;61778.28;5048440;28;20044;-72
2023/04/15 09:42:58;;;;;;;6.10;5.20;;;;;;;-139.84;100.00;61778.28;5043255;28;20358;-72
2023/04/15 09:45:24;;;;;;;8.90;5.30;;;;;;;-139.84;100.00;61778.28;5045550;28;20590;-72
2023/04/15 09:47:53;;;;;;;9.40;4.43;;;;;;;-139.84;100.00;61778.28;5041946;28;20104;-72
2023/04/15 09:50:19;;;;;;;5.85;3.55;;;;;;;-139.84;100.00;61778.28;5048201;28;20507;-72
2023/04/15 09:52:45;;;;;;;4.03;3.08;;;;;;;-139.84;100.00;61778.28;5041247;28;20025;-72
2023/04/15 09:55:12;;;;;;;8.60;3.47;;;;;;;-139.84;100.00;61778.28;5026325;28;20056;-72
2023/04/15 09:57:40;;;;;;;6.75;3.50;;;;;;;-139.84;100.00;61778.28;5040170;28;20083;-73
2023/04/15 10:00:07;;;;;;;6.72;3.58;;;;;;;-139.84;100.00;61778.28;5034233;28;20456;-72
2023/04/15 10:02:34;;;;;;;6.82;3.40;;;;;;;-139.84;100.00;61778.28;5044774;28;20072;-73
2023/04/15 10:05:01;;;;;;;5.95;3.75;;;;;;;-139.84;100.00;61778.28;5046984;28;20028;-72
2023/04/15 10:07:26;;;;;;;5.35;3.58;;;;;;;-139.84;100.00;61778.28;5045069;28;20034;-72
2023/04/15 10:09:52;;;;;;;7.00;4.50;;;;;;;-139.84;100.00;61778.28;5044028;28;20041;-72
2023/04/15 10:12:19;;;;;;;8.03;5.50;;;;;;;-139.84;100.00;61778.28;5021532;28;20045;-72
2023/04/15 10:14:48;;;;;;;;;;;;;;;-139.84;100.00;61778.28;5024308;28;20042;-71
2023/04/15 10:17:17;;;;;;;6.65;3.97;;;;;;;-139.84;100.00;61778.28;5024495;28;19912;-71
2023/04/15 10:19:43;;;;;;;8.00;4.00;;;;;;;-139.84;100.00;61778.28;5024697;28;20032;-72
2023/04/15 10:22:09;;;;;;;9.80;3.88;;;;;;;-139.84;100.00;61778.28;5021254;28;22380;-71
2023/04/15 10:24:36;;;;;;;12.63;4.63;;;;;;;-139.84;100.00;61778.28;5023699;28;20040;-71
2023/04/15 10:27:03;;;;;;;7.68;4.55;;;;;;;-139.84;100.00;61778.28;5020813;28;20036;-72
2023/04/15 10:29:28;;;;;;;8.65;4.60;;;;;;;-139.84;100.00;61778.28;5021873;28;20038;-71
2023/04/15 10:31:55;;;;;;;5.70;4.30;;;;;;;-139.84;100.00;61778.28;5026022;28;20025;-71
2023/04/15 10:37:10;;;;;;;7.65;4.70;;;;;;;-139.84;100.00;61778.28;5394955;23;19980;-77
2023/04/15 10:39:40;;;;;;;3.83;3.22;;;;;;;-139.84;100.00;61778.28;4980459;28;20038;-77
2023/04/15 10:42:10;;;;;;;6.40;3.40;;;;;;;-139.84;100.00;61778.28;4980849;28;20049;-79
2023/04/15 10:47:11;;;;;;;4.53;2.78;;;;;;;-139.84;100.00;61778.28;5715224;23;20100;-70
2023/04/15 10:49:44;;;;;;;7.17;3.13;;;;;;;-139.84;100.00;61778.28;4966945;28;20492;-71
2023/04/15 10:52:10;;;;;;;6.80;3.03;;;;;;;-139.84;100.00;61778.28;4987116;28;20038;-70
2023/04/15 10:54:38;;;;;;;5.32;3.75;;;;;;;-139.84;100.00;61778.28;4965462;28;20018;-71
2023/04/15 10:57:03;;;;;;;8.90;4.72;;;;;;;-139.84;100.00;61778.28;4968034;28;20048;-71
2023/04/15 10:59:35;;;;;;;8.20;5.17;;;;;;;-139.84;100.00;61778.28;4980267;28;20027;-71
2023/04/15 11:02:03;;;;;;;8.98;4.63;;;;;;;-139.84;100.00;61778.28;4984414;28;20045;-71
2023/04/15 11:04:54;;;;;;;11.15;4.43;;;;;;;-139.84;100.00;61778.28;4980367;28;20037;-71